createdAt,value
2022-12-01T00:00:33.869Z,102852.75
2022-12-01T00:03:36.015Z,102860.50
2022-12-01T00:06:37.477Z,102858.84
2022-12-01T00:09:38.897Z,102857.34
2022-12-01T00:12:40.389Z,102852.91
2022-12-01T00:15:41.855Z,102850.53
2022-12-01T00:18:43.662Z,102855.72
2022-12-01T00:21:46.175Z,102862.56
2022-12-01T00:24:47.707Z,102860.75
2022-12-01T00:27:50.472Z,102866.34
2022-12-01T00:30:51.920Z,102858.25
2022-12-01T00:33:53.405Z,102860.41
2022-12-01T00:36:55.311Z,102870.19
2022-12-01T00:39:57.687Z,102865.06
2022-12-01T00:42:59.073Z,102861.56
2022-12-01T00:46:00.733Z,102867.03
2022-12-01T00:49:02.270Z,102858.84
2022-12-01T00:52:03.768Z,102864.34
2022-12-01T00:55:05.642Z,102858.22
2022-12-01T00:58:07.257Z,102859.41
2022-12-01T01:01:08.805Z,102858.84
2022-12-01T01:04:10.361Z,102858.84
2022-12-01T01:07:11.864Z,102866.19
2022-12-01T01:10:13.274Z,102870.75
2022-12-01T01:13:15.178Z,102871.75
2022-12-01T01:16:20.146Z,102872.69
2022-12-01T01:19:22.075Z,102873.13
2022-12-01T01:22:23.480Z,102873.19
2022-12-01T01:25:25.143Z,102872.19
2022-12-01T01:28:26.595Z,102869.56
2022-12-01T01:31:30.301Z,102870.56
2022-12-01T01:34:31.844Z,102881.13
2022-12-01T01:37:33.245Z,102881.22
2022-12-01T01:40:34.728Z,102881.22
2022-12-01T01:43:43.661Z,102884.78
2022-12-01T01:46:45.092Z,102886.69
2022-12-01T01:49:47.468Z,102884.91
2022-12-01T01:52:54.968Z,102875.47
2022-12-01T01:55:56.864Z,102873.69
2022-12-01T01:58:59.209Z,102883.13
2022-12-01T02:02:05.372Z,102881.47
2022-12-01T02:05:09.396Z,102883.47
2022-12-01T02:08:11.424Z,102878.38
2022-12-01T02:11:40.173Z,102885.63
2022-12-01T02:14:56.682Z,102870.97
2022-12-01T02:18:13.644Z,102875.28
2022-12-01T02:21:30.212Z,102874.56
2022-12-01T02:25:09.245Z,102880.75
2022-12-01T02:28:16.664Z,102873.06
2022-12-01T02:31:36.608Z,102866.41
2022-12-01T02:34:44.750Z,102872.53
2022-12-01T02:37:56.801Z,102865.84
2022-12-01T02:41:26.260Z,102872.41
2022-12-01T02:44:36.013Z,102873.50
2022-12-01T02:47:40.259Z,102869.50
2022-12-01T02:50:42.460Z,102870.13
2022-12-01T02:53:44.381Z,102865.41
2022-12-01T02:56:45.787Z,102860.03
2022-12-01T02:59:50.662Z,102869.13
2022-12-01T03:03:08.738Z,102878.81
2022-12-01T03:06:29.787Z,102867.97
2022-12-01T03:09:50.120Z,102860.84
2022-12-01T03:13:10.427Z,102861.59
2022-12-01T03:16:14.300Z,102864.75
2022-12-01T03:19:26.451Z,102865.53
2022-12-01T03:22:41.527Z,102866.84
2022-12-01T03:25:48.287Z,102865.84
2022-12-01T03:28:56.513Z,102867.81
2022-12-01T03:32:03.424Z,102861.66
2022-12-01T03:35:10.491Z,102866.41
2022-12-01T03:38:15.501Z,102863.97
2022-12-01T03:41:24.696Z,102867.75
2022-12-01T03:44:34.298Z,102871.41
2022-12-01T03:47:36.170Z,102871.16
2022-12-01T03:51:12.662Z,102872.47
2022-12-01T03:54:22.038Z,102869.78
2022-12-01T03:57:34.704Z,102862.66
2022-12-01T04:00:37.197Z,102864.91
2022-12-01T04:03:38.917Z,102867.31
2022-12-01T04:06:43.131Z,102861.31
2022-12-01T04:09:44.528Z,102864.47
2022-12-01T04:12:46.054Z,102859.22
2022-12-01T04:15:47.865Z,102869.75
2022-12-01T04:18:49.347Z,102869.34
2022-12-01T04:21:50.821Z,102872.81
2022-12-01T04:24:52.720Z,102875.75
2022-12-01T04:27:54.097Z,102881.59
2022-12-01T04:30:55.595Z,102868.28
2022-12-01T04:33:58.854Z,102870.66
2022-12-01T04:37:00.549Z,102876.25
2022-12-01T04:40:02.014Z,102880.59
2022-12-01T04:43:03.450Z,102874.81
2022-12-01T04:46:05.635Z,102872.34
2022-12-01T04:49:07.085Z,102878.63
2022-12-01T04:52:08.538Z,102876.19
2022-12-01T04:55:10.308Z,102870.22
2022-12-01T04:58:11.851Z,102876.00
2022-12-01T05:01:15.794Z,102874.19
2022-12-01T05:04:17.247Z,102883.09
2022-12-01T05:07:18.791Z,102884.50
2022-12-01T05:10:20.344Z,102881.56
2022-12-01T05:13:21.798Z,102885.53
2022-12-01T05:16:26.283Z,102882.63
2022-12-01T05:19:27.852Z,102883.75
2022-12-01T05:23:03.238Z,102890.16
2022-12-01T05:25:51.153Z,102887.69
2022-12-01T05:28:52.536Z,102884.50
2022-12-01T05:31:54.032Z,102886.97
2022-12-01T05:34:55.550Z,102885.78
2022-12-01T05:37:56.963Z,102891.88
2022-12-01T05:40:58.379Z,102893.47
2022-12-01T05:43:59.763Z,102896.41
2022-12-01T05:47:01.187Z,102901.03
2022-12-01T05:50:05.771Z,102893.88
2022-12-01T05:53:08.010Z,102892.75
2022-12-01T05:56:09.587Z,102896.19
2022-12-01T05:59:10.990Z,102896.03
2022-12-01T06:02:12.408Z,102890.97
2022-12-01T06:05:13.864Z,102903.28
2022-12-01T06:08:15.325Z,102910.13
2022-12-01T06:11:16.796Z,102893.13
2022-12-01T06:14:18.318Z,102908.75
2022-12-01T06:17:19.740Z,102910.25
2022-12-01T06:20:21.204Z,102905.97
2022-12-01T06:23:26.306Z,102905.06
2022-12-01T06:26:30.343Z,102907.78
2022-12-01T06:29:31.865Z,102900.56
2022-12-01T06:32:33.383Z,102897.53
2022-12-01T06:35:35.679Z,102902.69
2022-12-01T06:38:37.565Z,102904.41
2022-12-01T06:41:39.242Z,102911.25
2022-12-01T06:44:40.742Z,102917.13
2022-12-01T06:47:42.164Z,102911.25
2022-12-01T06:50:43.626Z,102918.25
2022-12-01T06:53:45.007Z,102920.41
2022-12-01T06:56:46.491Z,102927.03
2022-12-01T06:59:48.403Z,102925.31
2022-12-01T07:02:50.941Z,102920.94
2022-12-01T07:05:57.535Z,102927.09
2022-12-01T07:08:58.998Z,102925.53
2022-12-01T07:12:00.459Z,102925.44
2022-12-01T07:15:02.213Z,102934.19
2022-12-01T07:18:03.635Z,102929.19
2022-12-01T07:21:07.532Z,102937.22
2022-12-01T07:24:09.234Z,102941.91
2022-12-01T07:27:10.742Z,102946.63
2022-12-01T07:30:12.549Z,102944.34
2022-12-01T07:33:13.973Z,102947.25
2022-12-01T07:36:15.596Z,102947.41
2022-12-01T07:39:17.074Z,102949.38
2022-12-01T07:42:18.465Z,102949.53
2022-12-01T07:45:19.892Z,102956.53
2022-12-01T07:48:21.348Z,102955.53
2022-12-01T07:51:24.659Z,102962.56
2022-12-01T07:54:26.084Z,102967.50
2022-12-01T07:57:27.658Z,102968.41
2022-12-01T08:00:29.073Z,102968.41
2022-12-01T08:03:30.533Z,102981.03
2022-12-01T08:06:31.933Z,102985.88
2022-12-01T08:09:33.324Z,102985.56
2022-12-01T08:12:35.150Z,102988.56
2022-12-01T08:15:36.756Z,102986.34
2022-12-01T08:18:39.664Z,102990.09
2022-12-01T08:21:41.488Z,102981.69
2022-12-01T08:24:43.012Z,102982.00
2022-12-01T08:27:44.772Z,102979.47
2022-12-01T08:30:47.358Z,102976.09
2022-12-01T08:33:49.760Z,102989.06
2022-12-01T08:36:51.374Z,102989.16
2022-12-01T08:39:52.826Z,102994.63
2022-12-01T08:43:03.157Z,102984.31
2022-12-01T08:46:06.644Z,102986.19
2022-12-01T08:49:08.157Z,102998.00
2022-12-01T08:52:09.613Z,102995.75
2022-12-01T08:55:11.574Z,102998.94
2022-12-01T08:58:13.046Z,103002.00
2022-12-01T09:01:16.060Z,102995.22
2022-12-01T09:04:22.637Z,102991.97
2022-12-01T09:07:26.574Z,102983.13
2022-12-01T09:10:28.514Z,102983.81
2022-12-01T09:13:30.819Z,102984.78
2022-12-01T09:16:33.315Z,102985.09
2022-12-01T09:19:35.307Z,102991.56
2022-12-01T09:22:36.749Z,102986.72
2022-12-01T09:25:38.204Z,102998.38
2022-12-01T09:28:39.619Z,102986.56
2022-12-01T09:31:42.011Z,102997.22
2022-12-01T09:34:43.572Z,102989.66
2022-12-01T09:37:44.965Z,102985.63
2022-12-01T09:40:46.434Z,102989.44
2022-12-01T09:44:00.853Z,102987.09
2022-12-01T09:47:23.905Z,102983.22
2022-12-01T09:50:26.770Z,102989.38
2022-12-01T09:53:29.216Z,102988.66
2022-12-01T09:56:39.512Z,102986.03
2022-12-01T09:59:41.501Z,102974.94
2022-12-01T10:03:09.255Z,102981.34
2022-12-01T10:06:27.683Z,102979.84
2022-12-01T10:09:44.250Z,102969.59
2022-12-01T10:12:47.060Z,102965.41
2022-12-01T10:15:54.780Z,102961.22
2022-12-01T10:18:56.254Z,102973.53
2022-12-01T10:22:29.882Z,102966.63
2022-12-01T10:25:45.830Z,102969.34
2022-12-01T10:29:05.588Z,102963.28
2022-12-01T10:32:19.208Z,102959.06
2022-12-01T10:35:23.363Z,102954.88
2022-12-01T10:38:29.348Z,102969.81
2022-12-01T10:41:35.009Z,102963.06
2022-12-01T10:44:36.561Z,102960.66
2022-12-01T10:47:38.004Z,102959.78
2022-12-01T10:50:39.451Z,102956.22
2022-12-01T10:53:42.051Z,102965.19
2022-12-01T10:56:47.008Z,102955.97
2022-12-01T10:59:52.699Z,102954.44
2022-12-01T11:02:55.189Z,102953.38
2022-12-01T11:05:59.762Z,102951.69
2022-12-01T11:09:03.873Z,102956.28
2022-12-01T11:12:05.543Z,102950.22
2022-12-01T11:15:08.028Z,102947.34
2022-12-01T11:18:28.350Z,102944.59
2022-12-01T11:21:29.823Z,102939.38
2022-12-01T11:24:53.716Z,102931.28
2022-12-01T11:28:20.042Z,102925.34
2022-12-01T11:31:34.631Z,102925.50
2022-12-01T11:34:36.183Z,102919.25
2022-12-01T11:37:54.918Z,102924.09
2022-12-01T11:41:28.859Z,102923.34
2022-12-01T11:44:50.969Z,102922.31
2022-12-01T11:47:59.033Z,102910.97
2022-12-01T11:51:11.659Z,102914.53
2022-12-01T11:54:20.003Z,102909.19
2022-12-01T11:57:36.633Z,102913.34
2022-12-01T12:00:50.006Z,102906.13
2022-12-01T12:04:19.130Z,102905.16
2022-12-01T12:07:35.950Z,102915.22
2022-12-01T12:10:57.092Z,102906.53
2022-12-01T12:14:29.775Z,102902.63
2022-12-01T12:18:09.098Z,102902.03
2022-12-01T12:21:38.626Z,102903.63
2022-12-01T12:25:04.056Z,102894.88
2022-12-01T12:28:28.391Z,102896.50
2022-12-01T12:31:58.475Z,102893.94
2022-12-01T12:35:15.879Z,102887.03
2022-12-01T12:38:54.950Z,102886.19
2022-12-01T12:41:57.634Z,102885.72
2022-12-01T12:45:14.893Z,102883.03
2022-12-01T12:49:12.131Z,102878.81
2022-12-01T12:52:45.346Z,102878.00
2022-12-01T12:55:50.813Z,102886.69
2022-12-01T12:59:09.931Z,102889.13
2022-12-01T13:02:19.817Z,102893.41
2022-12-01T13:05:27.518Z,102890.22
2022-12-01T13:08:40.352Z,102886.50
2022-12-01T13:11:47.531Z,102882.16
2022-12-01T13:14:59.421Z,102885.03
2022-12-01T13:18:18.884Z,102871.28
2022-12-01T13:21:22.819Z,102876.38
2022-12-01T13:24:27.884Z,102883.03
2022-12-01T13:27:47.835Z,102884.13
2022-12-01T13:31:07.275Z,102883.13
2022-12-01T13:34:20.557Z,102883.66
2022-12-01T13:37:28.314Z,102877.97
2022-12-01T13:40:31.091Z,102867.19
2022-12-01T13:43:32.544Z,102866.09
2022-12-01T13:46:36.921Z,102859.75
2022-12-01T13:49:41.369Z,102864.00
2022-12-01T13:52:50.162Z,102865.72
2022-12-01T13:56:00.776Z,102858.75
2022-12-01T13:59:02.407Z,102852.75
2022-12-01T14:02:16.059Z,102857.91
2022-12-01T14:05:41.584Z,102854.22
2022-12-01T14:08:48.883Z,102847.31
2022-12-01T14:12:10.671Z,102848.03
2022-12-01T14:15:29.441Z,102843.56
2022-12-01T14:18:34.803Z,102846.78
2022-12-01T14:21:45.891Z,102845.84
2022-12-01T14:24:52.569Z,102839.59
2022-12-01T14:27:59.829Z,102843.88
2022-12-01T14:31:17.503Z,102846.28
2022-12-01T14:34:29.724Z,102840.09
2022-12-01T14:37:39.289Z,102844.19
2022-12-01T14:40:40.875Z,102843.00
2022-12-01T14:43:43.125Z,102846.41
2022-12-01T14:47:12.036Z,102851.28
2022-12-01T14:50:32.710Z,102836.31
2022-12-01T14:53:38.611Z,102848.22
2022-12-01T14:56:41.462Z,102854.03
2022-12-01T14:59:42.969Z,102850.94
2022-12-01T15:02:59.886Z,102848.88
2022-12-01T15:06:01.395Z,102847.03
2022-12-01T15:09:32.742Z,102838.22
2022-12-01T15:12:33.638Z,102848.53
2022-12-01T15:15:35.098Z,102842.09
2022-12-01T15:18:36.853Z,102841.69
2022-12-01T15:21:38.355Z,102847.50
2022-12-01T15:24:40.491Z,102853.38
2022-12-01T15:27:44.776Z,102855.63
2022-12-01T15:30:47.473Z,102849.03
2022-12-01T15:33:52.052Z,102858.31
2022-12-01T15:36:54.285Z,102853.69
2022-12-01T15:43:27.995Z,102850.00
2022-12-01T15:46:31.863Z,102845.03
2022-12-01T15:49:33.314Z,102852.97
2022-12-01T15:52:44.579Z,102862.19
2022-12-01T15:55:50.078Z,102855.78
2022-12-01T15:58:58.103Z,102854.69
2022-12-01T16:02:05.329Z,102860.69
2022-12-01T16:05:12.828Z,102861.19
2022-12-01T16:08:24.391Z,102856.94
2022-12-01T16:11:26.635Z,102862.50
2022-12-01T16:14:28.103Z,102865.84
2022-12-01T16:17:42.924Z,102871.63
2022-12-01T16:20:44.518Z,102869.78
2022-12-01T16:23:45.987Z,102875.00
2022-12-01T16:27:10.293Z,102863.09
2022-12-01T16:30:27.132Z,102867.69
2022-12-01T16:33:29.457Z,102864.56
2022-12-01T16:36:31.161Z,102867.50
2022-12-01T16:39:32.631Z,102866.63
2022-12-01T16:42:34.149Z,102872.31
2022-12-01T16:45:35.913Z,102864.81
2022-12-01T16:48:37.641Z,102862.06
2022-12-01T16:51:54.837Z,102862.13
2022-12-01T16:54:57.709Z,102853.13
2022-12-01T16:57:59.431Z,102859.97
2022-12-01T17:01:01.030Z,102858.41
2022-12-01T17:04:07.376Z,102861.63
2022-12-01T17:07:09.331Z,102859.44
2022-12-01T17:10:11.912Z,102850.38
2022-12-01T17:13:13.974Z,102853.53
2022-12-01T17:16:18.441Z,102863.69
2022-12-01T17:19:20.353Z,102855.22
2022-12-01T17:22:21.945Z,102851.28
2022-12-01T17:25:23.810Z,102858.56
2022-12-01T17:28:25.807Z,102856.78
2022-12-01T17:31:27.321Z,102853.56
2022-12-01T17:34:29.037Z,102851.91
2022-12-01T17:37:30.586Z,102849.94
2022-12-01T17:40:32.611Z,102855.00
2022-12-01T17:43:36.903Z,102846.66
2022-12-01T17:46:38.812Z,102849.53
2022-12-01T17:49:40.349Z,102849.66
2022-12-01T17:52:42.443Z,102842.28
2022-12-01T17:55:44.270Z,102848.72
2022-12-01T17:58:47.534Z,102849.94
2022-12-01T18:01:52.479Z,102843.13
2022-12-01T18:04:54.267Z,102844.47
2022-12-01T18:07:56.009Z,102843.78
2022-12-01T18:11:03.311Z,102840.94
2022-12-01T18:14:10.552Z,102844.84
2022-12-01T18:17:12.229Z,102848.78
2022-12-01T18:20:14.707Z,102848.31
2022-12-01T18:23:16.128Z,102851.19
2022-12-01T18:26:18.218Z,102846.38
2022-12-01T18:29:26.339Z,102849.63
2022-12-01T18:32:28.178Z,102847.03
2022-12-01T18:35:32.006Z,102846.22
2022-12-01T18:38:34.629Z,102842.97
2022-12-01T18:41:36.963Z,102843.19
2022-12-01T18:44:38.446Z,102843.25
2022-12-01T18:47:39.908Z,102848.91
2022-12-01T18:50:41.578Z,102845.72
2022-12-01T18:53:43.351Z,102849.16
2022-12-01T18:56:45.116Z,102848.59
2022-12-01T18:59:46.625Z,102850.34
2022-12-01T19:02:48.096Z,102847.69
2022-12-01T19:05:49.767Z,102838.66
2022-12-01T19:08:52.684Z,102846.38
2022-12-01T19:11:57.547Z,102849.53
2022-12-01T19:15:03.353Z,102843.22
2022-12-01T19:18:05.134Z,102843.38
2022-12-01T19:21:08.449Z,102844.41
2022-12-01T19:24:09.883Z,102840.56
2022-12-01T19:27:11.465Z,102834.06
2022-12-01T19:30:14.691Z,102832.28
2022-12-01T19:33:19.354Z,102835.84
2022-12-01T19:36:26.231Z,102842.09
2022-12-01T19:39:28.095Z,102834.75
2022-12-01T19:42:29.536Z,102835.28
2022-12-01T19:45:31.091Z,102829.47
2022-12-01T19:48:32.791Z,102835.06
2022-12-01T19:51:39.223Z,102838.00
2022-12-01T19:54:40.898Z,102844.50
2022-12-01T19:57:42.397Z,102836.97
2022-12-01T20:00:44.605Z,102834.75
2022-12-01T20:03:48.548Z,102839.19
2022-12-01T20:06:50.117Z,102844.47
2022-12-01T20:09:51.601Z,102844.66
2022-12-01T20:12:53.026Z,102851.88
2022-12-01T20:15:58.055Z,102839.69
2022-12-01T20:19:01.687Z,102838.03
2022-12-01T20:22:03.380Z,102839.00
2022-12-01T20:25:08.283Z,102843.50
2022-12-01T20:28:09.764Z,102832.47
2022-12-01T20:31:18.656Z,102835.16
2022-12-01T20:34:32.678Z,102839.63
2022-12-01T20:37:34.509Z,102842.31
2022-12-01T20:40:36.249Z,102845.88
2022-12-01T20:43:38.169Z,102842.47
2022-12-01T20:46:47.691Z,102841.63
2022-12-01T20:49:52.086Z,102846.25
2022-12-01T20:53:02.554Z,102842.25
2022-12-01T20:56:21.825Z,102839.78
2022-12-01T20:59:23.388Z,102832.06
2022-12-01T21:02:24.904Z,102837.44
2022-12-01T21:05:27.315Z,102834.03
2022-12-01T21:08:28.756Z,102842.66
2022-12-01T21:11:34.731Z,102835.78
2022-12-01T21:14:56.558Z,102827.97
2022-12-01T21:18:05.326Z,102821.00
2022-12-01T21:21:25.374Z,102815.88
2022-12-01T21:24:33.541Z,102806.28
2022-12-01T21:27:36.376Z,102806.41
2022-12-01T21:30:37.822Z,102810.75
2022-12-01T21:33:40.557Z,102803.19
2022-12-01T21:36:41.960Z,102797.34
2022-12-01T21:39:43.444Z,102789.84
2022-12-01T21:42:44.860Z,102775.94
2022-12-01T21:45:49.748Z,102781.72
2022-12-01T21:48:51.177Z,102777.38
2022-12-01T21:51:53.490Z,102780.81
2022-12-01T21:55:00.440Z,102778.06
2022-12-01T21:58:02.487Z,102778.75
2022-12-01T22:01:16.538Z,102787.38
2022-12-01T22:04:29.300Z,102794.53
2022-12-01T22:07:30.855Z,102788.38
2022-12-01T22:10:58.979Z,102786.59
2022-12-01T22:14:22.430Z,102785.72
2022-12-01T22:17:23.943Z,102781.50
2022-12-01T22:20:25.476Z,102780.06
2022-12-01T22:23:32.949Z,102790.84
2022-12-01T22:26:37.259Z,102789.25
2022-12-01T22:29:44.287Z,102786.03
2022-12-01T22:32:54.808Z,102777.31
2022-12-01T22:35:56.275Z,102789.34
2022-12-01T22:38:58.541Z,102790.25
2022-12-01T22:42:05.254Z,102780.66
2022-12-01T22:45:24.648Z,102777.22
2022-12-01T22:48:46.567Z,102779.81
2022-12-01T22:51:50.419Z,102772.00
2022-12-01T22:54:52.218Z,102771.09
2022-12-01T22:57:54.664Z,102783.28
2022-12-01T23:01:00.878Z,102773.66
2022-12-01T23:04:18.833Z,102777.09
2022-12-01T23:07:28.655Z,102779.78
2022-12-01T23:10:34.108Z,102783.19
2022-12-01T23:13:35.561Z,102777.22
2022-12-01T23:16:39.761Z,102779.84
2022-12-01T23:19:41.110Z,102780.66
2022-12-01T23:22:42.570Z,102771.09
2022-12-01T23:25:45.221Z,102775.31
2022-12-01T23:28:46.683Z,102775.47
2022-12-01T23:31:49.972Z,102780.66
2022-12-01T23:34:54.648Z,102765.78
2022-12-01T23:38:00.071Z,102774.56
2022-12-01T23:41:05.602Z,102765.94
2022-12-01T23:44:26.380Z,102760.03
2022-12-01T23:47:29.216Z,102760.13
2022-12-01T23:50:31.161Z,102754.06
2022-12-01T23:53:32.985Z,102751.47
2022-12-01T23:56:37.492Z,102752.25
2022-12-01T23:59:39.072Z,102742.66
